sensor_id;sensor_type;location;lat;lon;timestamp;pressure;altitude;pressure_sealevel;temperature;humidity
81680;BME280;74989;52.210;5.148;2024-01-06T00:01:29;100506.31;;;6.70;84.10
81680;BME280;74989;52.210;5.148;2024-01-06T00:03:56;100501.38;;;6.62;84.58
81680;BME280;74989;52.210;5.148;2024-01-06T00:06:23;100498.44;;;6.70;84.66
81680;BME280;74989;52.210;5.148;2024-01-06T00:08:51;100510.75;;;6.70;85.12
81680;BME280;74989;52.210;5.148;2024-01-06T00:11:22;100503.00;;;6.75;84.99
81680;BME280;74989;52.210;5.148;2024-01-06T00:13:48;100512.84;;;6.79;84.24
81680;BME280;74989;52.210;5.148;2024-01-06T00:16:16;100495.00;;;6.70;83.13
81680;BME280;74989;52.210;5.148;2024-01-06T00:18:43;100508.16;;;6.81;84.10
81680;BME280;74989;52.210;5.148;2024-01-06T00:21:10;100505.72;;;6.68;83.42
81680;BME280;74989;52.210;5.148;2024-01-06T00:23:37;100521.47;;;6.68;83.67
81680;BME280;74989;52.210;5.148;2024-01-06T00:26:04;100520.22;;;6.71;83.62
81680;BME280;74989;52.210;5.148;2024-01-06T00:28:32;100496.66;;;6.53;82.77
81680;BME280;74989;52.210;5.148;2024-01-06T00:30:58;100521.13;;;6.65;83.20
81680;BME280;74989;52.210;5.148;2024-01-06T00:33:25;100518.50;;;6.65;83.62
81680;BME280;74989;52.210;5.148;2024-01-06T00:35:52;100525.69;;;6.69;83.52
81680;BME280;74989;52.210;5.148;2024-01-06T00:38:20;100526.50;;;6.70;83.81
81680;BME280;74989;52.210;5.148;2024-01-06T00:40:47;100512.31;;;6.59;84.18
81680;BME280;74989;52.210;5.148;2024-01-06T00:43:14;100523.88;;;6.70;83.92
81680;BME280;74989;52.210;5.148;2024-01-06T00:45:42;100530.59;;;6.66;84.15
81680;BME280;74989;52.210;5.148;2024-01-06T00:48:09;100533.22;;;6.66;84.63
81680;BME280;74989;52.210;5.148;2024-01-06T00:50:35;100537.31;;;6.62;84.19
81680;BME280;74989;52.210;5.148;2024-01-06T00:53:02;100536.06;;;6.64;83.78
81680;BME280;74989;52.210;5.148;2024-01-06T00:55:29;100528.53;;;6.56;85.13
81680;BME280;74989;52.210;5.148;2024-01-06T00:57:56;100545.09;;;6.68;82.59
81680;BME280;74989;52.210;5.148;2024-01-06T01:00:23;100543.59;;;6.61;83.10
81680;BME280;74989;52.210;5.148;2024-01-06T01:02:51;100542.13;;;6.65;83.83
81680;BME280;74989;52.210;5.148;2024-01-06T01:05:18;100544.31;;;6.68;84.17
81680;BME280;74989;52.210;5.148;2024-01-06T01:07:44;100548.09;;;6.72;83.69
81680;BME280;74989;52.210;5.148;2024-01-06T01:10:11;100558.03;;;6.70;82.42
81680;BME280;74989;52.210;5.148;2024-01-06T01:12:38;100558.88;;;6.64;82.59
81680;BME280;74989;52.210;5.148;2024-01-06T01:15:06;100561.97;;;6.61;83.49
81680;BME280;74989;52.210;5.148;2024-01-06T01:17:33;100564.59;;;6.61;84.33
81680;BME280;74989;52.210;5.148;2024-01-06T01:20:01;100574.44;;;6.65;83.81
81680;BME280;74989;52.210;5.148;2024-01-06T01:22:28;100582.75;;;6.62;82.07
81680;BME280;74989;52.210;5.148;2024-01-06T01:24:54;100586.84;;;6.58;83.57
81680;BME280;74989;52.210;5.148;2024-01-06T01:27:21;100591.59;;;6.50;83.13
81680;BME280;74989;52.210;5.148;2024-01-06T01:29:48;100581.59;;;6.40;83.05
81680;BME280;74989;52.210;5.148;2024-01-06T01:32:18;100573.94;;;6.39;83.29
81680;BME280;74989;52.210;5.148;2024-01-06T01:34:44;100598.69;;;6.49;84.44
81680;BME280;74989;52.210;5.148;2024-01-06T01:37:12;100580.44;;;6.36;83.94
81680;BME280;74989;52.210;5.148;2024-01-06T01:39:39;100605.03;;;6.42;82.47
81680;BME280;74989;52.210;5.148;2024-01-06T01:42:06;100608.97;;;6.33;83.27
81680;BME280;74989;52.210;5.148;2024-01-06T01:44:32;100610.19;;;6.30;80.96
81680;BME280;74989;52.210;5.148;2024-01-06T01:46:59;100617.25;;;6.30;82.12
81680;BME280;74989;52.210;5.148;2024-01-06T01:49:27;100623.41;;;6.23;83.24
81680;BME280;74989;52.210;5.148;2024-01-06T01:51:54;100625.06;;;6.18;81.94
81680;BME280;74989;52.210;5.148;2024-01-06T01:54:22;100627.09;;;6.16;83.10
81680;BME280;74989;52.210;5.148;2024-01-06T01:56:49;100634.75;;;6.36;83.01
81680;BME280;74989;52.210;5.148;2024-01-06T01:59:18;100644.09;;;6.32;83.40
81680;BME280;74989;52.210;5.148;2024-01-06T02:01:45;100646.28;;;6.35;82.90
81680;BME280;74989;52.210;5.148;2024-01-06T02:04:12;100642.53;;;6.24;82.20
81680;BME280;74989;52.210;5.148;2024-01-06T02:06:39;100650.25;;;6.19;82.20
81680;BME280;74989;52.210;5.148;2024-01-06T02:09:05;100615.72;;;6.04;82.75
81680;BME280;74989;52.210;5.148;2024-01-06T02:11:33;100653.50;;;6.21;82.94
81680;BME280;74989;52.210;5.148;2024-01-06T02:14:00;100649.63;;;6.23;84.11
81680;BME280;74989;52.210;5.148;2024-01-06T02:16:27;100652.75;;;6.32;83.35
81680;BME280;74989;52.210;5.148;2024-01-06T02:18:54;100655.75;;;6.36;83.19
81680;BME280;74989;52.210;5.148;2024-01-06T02:21:21;100665.81;;;6.39;83.01
81680;BME280;74989;52.210;5.148;2024-01-06T02:23:49;100665.97;;;6.26;82.41
81680;BME280;74989;52.210;5.148;2024-01-06T02:26:16;100673.44;;;6.22;81.88
81680;BME280;74989;52.210;5.148;2024-01-06T02:28:43;100673.88;;;6.19;82.06
81680;BME280;74989;52.210;5.148;2024-01-06T02:31:13;100674.09;;;6.17;83.24
81680;BME280;74989;52.210;5.148;2024-01-06T02:33:39;100674.47;;;6.21;81.03
81680;BME280;74989;52.210;5.148;2024-01-06T02:36:07;100681.75;;;6.19;83.25
81680;BME280;74989;52.210;5.148;2024-01-06T02:38:33;100686.56;;;6.22;83.81
81680;BME280;74989;52.210;5.148;2024-01-06T02:41:01;100685.75;;;6.21;84.04
81680;BME280;74989;52.210;5.148;2024-01-06T02:43:28;100688.34;;;6.28;84.39
81680;BME280;74989;52.210;5.148;2024-01-06T02:45:57;100688.13;;;6.30;83.23
81680;BME280;74989;52.210;5.148;2024-01-06T02:48:24;100691.38;;;6.25;82.31
81680;BME280;74989;52.210;5.148;2024-01-06T02:50:50;100699.50;;;6.23;83.12
81680;BME280;74989;52.210;5.148;2024-01-06T02:53:17;100703.13;;;6.22;82.55
81680;BME280;74989;52.210;5.148;2024-01-06T02:55:44;100714.84;;;6.20;82.65
81680;BME280;74989;52.210;5.148;2024-01-06T02:58:12;100711.63;;;6.18;83.81
81680;BME280;74989;52.210;5.148;2024-01-06T03:00:38;100690.13;;;6.09;82.58
81680;BME280;74989;52.210;5.148;2024-01-06T03:03:05;100705.25;;;6.07;83.05
81680;BME280;74989;52.210;5.148;2024-01-06T03:05:32;100725.75;;;6.17;81.15
81680;BME280;74989;52.210;5.148;2024-01-06T03:07:58;100718.75;;;6.11;81.19
81680;BME280;74989;52.210;5.148;2024-01-06T03:10:26;100717.19;;;6.03;81.21
81680;BME280;74989;52.210;5.148;2024-01-06T03:12:52;100711.25;;;5.90;81.96
81680;BME280;74989;52.210;5.148;2024-01-06T03:15:20;100724.91;;;5.98;82.35
81680;BME280;74989;52.210;5.148;2024-01-06T03:17:47;100736.59;;;6.02;81.68
81680;BME280;74989;52.210;5.148;2024-01-06T03:20:14;100739.69;;;5.93;82.29
81680;BME280;74989;52.210;5.148;2024-01-06T03:22:40;100737.84;;;5.93;82.51
81680;BME280;74989;52.210;5.148;2024-01-06T03:25:08;100739.41;;;6.01;83.45
81680;BME280;74989;52.210;5.148;2024-01-06T03:27:35;100742.63;;;6.03;83.79
81680;BME280;74989;52.210;5.148;2024-01-06T03:30:02;100740.38;;;6.06;83.71
81680;BME280;74989;52.210;5.148;2024-01-06T03:32:30;100751.25;;;6.10;83.41
81680;BME280;74989;52.210;5.148;2024-01-06T03:34:57;100752.63;;;6.12;81.77
81680;BME280;74989;52.210;5.148;2024-01-06T03:37:24;100753.44;;;6.13;81.89
81680;BME280;74989;52.210;5.148;2024-01-06T03:39:51;100765.22;;;6.04;81.99
81680;BME280;74989;52.210;5.148;2024-01-06T03:42:17;100763.66;;;5.96;82.12
81680;BME280;74989;52.210;5.148;2024-01-06T03:44:44;100769.31;;;5.93;82.28
81680;BME280;74989;52.210;5.148;2024-01-06T03:47:11;100770.31;;;5.99;82.63
81680;BME280;74989;52.210;5.148;2024-01-06T03:49:39;100770.31;;;5.99;81.89
81680;BME280;74989;52.210;5.148;2024-01-06T03:52:05;100767.56;;;5.87;82.29
81680;BME280;74989;52.210;5.148;2024-01-06T03:54:32;100768.56;;;5.86;82.06
81680;BME280;74989;52.210;5.148;2024-01-06T03:56:59;100766.19;;;5.78;82.33
81680;BME280;74989;52.210;5.148;2024-01-06T03:59:25;100779.47;;;5.83;83.16
81680;BME280;74989;52.210;5.148;2024-01-06T04:01:52;100784.47;;;5.91;84.08
81680;BME280;74989;52.210;5.148;2024-01-06T04:04:19;100789.25;;;6.01;82.69
81680;BME280;74989;52.210;5.148;2024-01-06T04:06:47;100787.44;;;6.01;82.51
81680;BME280;74989;52.210;5.148;2024-01-06T04:09:14;100803.75;;;6.03;83.02
81680;BME280;74989;52.210;5.148;2024-01-06T04:11:41;100794.50;;;6.01;83.20
81680;BME280;74989;52.210;5.148;2024-01-06T04:14:08;100804.56;;;6.04;82.93
81680;BME280;74989;52.210;5.148;2024-01-06T04:16:34;100808.78;;;6.05;82.77
81680;BME280;74989;52.210;5.148;2024-01-06T04:19:01;100806.38;;;6.03;83.20
81680;BME280;74989;52.210;5.148;2024-01-06T04:21:28;100805.00;;;6.01;82.76
81680;BME280;74989;52.210;5.148;2024-01-06T04:23:56;100807.06;;;5.92;83.29
81680;BME280;74989;52.210;5.148;2024-01-06T04:26:22;100813.50;;;5.96;83.22
81680;BME280;74989;52.210;5.148;2024-01-06T04:28:49;100804.06;;;5.89;82.64
81680;BME280;74989;52.210;5.148;2024-01-06T04:31:16;100821.53;;;6.01;82.34
81680;BME280;74989;52.210;5.148;2024-01-06T04:33:43;100808.06;;;5.91;82.36
81680;BME280;74989;52.210;5.148;2024-01-06T04:36:09;100818.38;;;5.93;82.73
81680;BME280;74989;52.210;5.148;2024-01-06T04:38:36;100820.78;;;5.94;83.42
81680;BME280;74989;52.210;5.148;2024-01-06T04:41:04;100813.66;;;6.01;83.63
81680;BME280;74989;52.210;5.148;2024-01-06T04:43:31;100825.16;;;6.00;83.54
81680;BME280;74989;52.210;5.148;2024-01-06T04:45:58;100814.47;;;6.02;83.22
81680;BME280;74989;52.210;5.148;2024-01-06T04:48:24;100829.00;;;5.98;83.38
81680;BME280;74989;52.210;5.148;2024-01-06T04:50:51;100827.19;;;5.98;83.67
81680;BME280;74989;52.210;5.148;2024-01-06T04:53:18;100827.16;;;6.05;83.07
81680;BME280;74989;52.210;5.148;2024-01-06T04:55:45;100829.22;;;5.96;82.49
81680;BME280;74989;52.210;5.148;2024-01-06T04:58:13;100815.22;;;5.71;82.95
81680;BME280;74989;52.210;5.148;2024-01-06T05:00:39;100834.72;;;5.82;84.05
81680;BME280;74989;52.210;5.148;2024-01-06T05:03:06;100828.28;;;5.84;84.22
81680;BME280;74989;52.210;5.148;2024-01-06T05:05:33;100842.16;;;5.91;83.88
81680;BME280;74989;52.210;5.148;2024-01-06T05:08:00;100839.53;;;5.91;83.36
81680;BME280;74989;52.210;5.148;2024-01-06T05:10:27;100842.56;;;5.95;83.95
81680;BME280;74989;52.210;5.148;2024-01-06T05:12:53;100847.00;;;5.94;82.39
81680;BME280;74989;52.210;5.148;2024-01-06T05:15:22;100847.84;;;5.82;82.37
81680;BME280;74989;52.210;5.148;2024-01-06T05:17:48;100845.84;;;5.77;82.74
81680;BME280;74989;52.210;5.148;2024-01-06T05:20:15;100854.16;;;5.74;82.85
81680;BME280;74989;52.210;5.148;2024-01-06T05:22:42;100835.63;;;5.69;82.64
81680;BME280;74989;52.210;5.148;2024-01-06T05:25:08;100846.88;;;5.76;82.95
81680;BME280;74989;52.210;5.148;2024-01-06T05:27:35;100863.00;;;5.73;82.97
81680;BME280;74989;52.210;5.148;2024-01-06T05:30:02;100857.13;;;5.78;82.45
81680;BME280;74989;52.210;5.148;2024-01-06T05:32:30;100860.59;;;5.72;82.13
81680;BME280;74989;52.210;5.148;2024-01-06T05:34:57;100862.00;;;5.74;82.58
81680;BME280;74989;52.210;5.148;2024-01-06T05:37:24;100862.63;;;5.70;81.69
81680;BME280;74989;52.210;5.148;2024-01-06T05:39:51;100879.56;;;5.74;81.73
81680;BME280;74989;52.210;5.148;2024-01-06T05:42:18;100873.72;;;5.72;81.47
81680;BME280;74989;52.210;5.148;2024-01-06T05:44:44;100879.16;;;5.70;81.99
81680;BME280;74989;52.210;5.148;2024-01-06T05:47:11;100887.00;;;5.70;82.42
81680;BME280;74989;52.210;5.148;2024-01-06T05:49:42;100894.66;;;5.78;82.20
81680;BME280;74989;52.210;5.148;2024-01-06T05:52:09;100894.09;;;5.70;82.03
81680;BME280;74989;52.210;5.148;2024-01-06T05:54:40;100897.50;;;5.77;81.67
81680;BME280;74989;52.210;5.148;2024-01-06T05:57:06;100898.31;;;5.71;81.90
81680;BME280;74989;52.210;5.148;2024-01-06T05:59:33;100909.00;;;5.76;81.82
81680;BME280;74989;52.210;5.148;2024-01-06T06:02:00;100906.78;;;5.73;81.38
81680;BME280;74989;52.210;5.148;2024-01-06T06:04:27;100910.59;;;5.70;82.11
81680;BME280;74989;52.210;5.148;2024-01-06T06:06:55;100904.22;;;5.60;82.71
81680;BME280;74989;52.210;5.148;2024-01-06T06:09:22;100920.88;;;5.85;81.63
81680;BME280;74989;52.210;5.148;2024-01-06T06:11:48;100915.22;;;5.81;81.12
81680;BME280;74989;52.210;5.148;2024-01-06T06:14:15;100921.69;;;5.72;80.63
81680;BME280;74989;52.210;5.148;2024-01-06T06:16:42;100914.47;;;5.61;80.60
81680;BME280;74989;52.210;5.148;2024-01-06T06:19:09;100934.41;;;5.75;80.77
81680;BME280;74989;52.210;5.148;2024-01-06T06:21:35;100934.44;;;5.69;80.90
81680;BME280;74989;52.210;5.148;2024-01-06T06:24:04;100934.81;;;5.66;81.90
81680;BME280;74989;52.210;5.148;2024-01-06T06:26:31;100945.91;;;5.68;82.18
81680;BME280;74989;52.210;5.148;2024-01-06T06:28:57;100944.69;;;5.70;82.56
81680;BME280;74989;52.210;5.148;2024-01-06T06:31:24;100956.78;;;5.78;81.00
81680;BME280;74989;52.210;5.148;2024-01-06T06:33:51;100958.03;;;5.69;82.18
81680;BME280;74989;52.210;5.148;2024-01-06T06:36:18;100958.84;;;5.63;81.90
81680;BME280;74989;52.210;5.148;2024-01-06T06:38:45;100971.16;;;5.55;81.66
81680;BME280;74989;52.210;5.148;2024-01-06T06:41:13;100972.16;;;5.54;81.61
81680;BME280;74989;52.210;5.148;2024-01-06T06:43:41;100970.75;;;5.52;82.45
81680;BME280;74989;52.210;5.148;2024-01-06T06:46:08;100976.63;;;5.47;82.27
81680;BME280;74989;52.210;5.148;2024-01-06T06:48:35;100989.31;;;5.50;82.22
81680;BME280;74989;52.210;5.148;2024-01-06T06:51:02;100977.00;;;5.44;82.55
81680;BME280;74989;52.210;5.148;2024-01-06T06:53:29;100994.75;;;5.55;83.41
81680;BME280;74989;52.210;5.148;2024-01-06T06:55:56;100988.88;;;5.53;83.02
81680;BME280;74989;52.210;5.148;2024-01-06T06:58:24;100993.75;;;5.50;83.33
81680;BME280;74989;52.210;5.148;2024-01-06T07:00:50;100981.03;;;5.47;83.02
81680;BME280;74989;52.210;5.148;2024-01-06T07:03:19;100993.34;;;5.60;82.57
81680;BME280;74989;52.210;5.148;2024-01-06T07:05:46;101002.41;;;5.44;82.47
81680;BME280;74989;52.210;5.148;2024-01-06T07:08:13;101004.66;;;5.27;83.50
81680;BME280;74989;52.210;5.148;2024-01-06T07:10:40;101017.34;;;5.37;84.24
81680;BME280;74989;52.210;5.148;2024-01-06T07:13:10;101015.94;;;5.34;84.23
81680;BME280;74989;52.210;5.148;2024-01-06T07:15:38;101021.56;;;5.44;84.06
81680;BME280;74989;52.210;5.148;2024-01-06T07:18:05;101027.22;;;5.48;83.48
81680;BME280;74989;52.210;5.148;2024-01-06T07:20:31;101021.78;;;5.43;84.10
81680;BME280;74989;52.210;5.148;2024-01-06T07:23:01;101035.28;;;5.53;83.97
81680;BME280;74989;52.210;5.148;2024-01-06T07:25:28;101035.91;;;5.48;83.99
81680;BME280;74989;52.210;5.148;2024-01-06T07:27:56;101041.31;;;5.53;84.37
81680;BME280;74989;52.210;5.148;2024-01-06T07:30:23;101049.38;;;5.65;83.77
81680;BME280;74989;52.210;5.148;2024-01-06T07:32:51;101057.06;;;5.67;83.34
81680;BME280;74989;52.210;5.148;2024-01-06T07:35:18;101052.63;;;5.67;84.62
81680;BME280;74989;52.210;5.148;2024-01-06T07:37:44;101056.22;;;5.73;83.47
81680;BME280;74989;52.210;5.148;2024-01-06T07:40:12;101060.88;;;5.71;83.61
81680;BME280;74989;52.210;5.148;2024-01-06T07:42:42;101064.06;;;5.79;83.51
81680;BME280;74989;52.210;5.148;2024-01-06T07:45:09;101066.28;;;5.82;82.63
81680;BME280;74989;52.210;5.148;2024-01-06T07:47:35;101067.75;;;5.72;82.77
81680;BME280;74989;52.210;5.148;2024-01-06T07:50:05;101073.97;;;5.71;82.34
81680;BME280;74989;52.210;5.148;2024-01-06T07:52:32;101075.19;;;5.62;82.01
81680;BME280;74989;52.210;5.148;2024-01-06T07:54:58;101070.56;;;5.50;82.30
81680;BME280;74989;52.210;5.148;2024-01-06T07:57:25;101081.66;;;5.52;82.12
81680;BME280;74989;52.210;5.148;2024-01-06T07:59:52;101077.41;;;5.58;82.76
81680;BME280;74989;52.210;5.148;2024-01-06T08:02:19;101099.19;;;5.58;82.44
81680;BME280;74989;52.210;5.148;2024-01-06T08:04:46;101095.75;;;5.51;82.69
81680;BME280;74989;52.210;5.148;2024-01-06T08:07:16;101096.97;;;5.49;82.65
81680;BME280;74989;52.210;5.148;2024-01-06T08:09:43;101103.22;;;5.54;82.55
81680;BME280;74989;52.210;5.148;2024-01-06T08:12:10;101106.06;;;5.53;82.82
81680;BME280;74989;52.210;5.148;2024-01-06T08:14:37;101078.63;;;5.42;82.54
81680;BME280;74989;52.210;5.148;2024-01-06T08:17:04;101115.53;;;5.67;81.50
81680;BME280;74989;52.210;5.148;2024-01-06T08:19:31;101110.50;;;5.59;81.89
81680;BME280;74989;52.210;5.148;2024-01-06T08:21:58;101105.63;;;5.56;82.53
81680;BME280;74989;52.210;5.148;2024-01-06T08:24:26;101112.50;;;5.57;81.67
81680;BME280;74989;52.210;5.148;2024-01-06T08:26:53;101126.44;;;5.64;81.75
81680;BME280;74989;52.210;5.148;2024-01-06T08:29:20;101124.19;;;5.68;81.03
81680;BME280;74989;52.210;5.148;2024-01-06T08:31:47;101138.91;;;5.75;81.49
81680;BME280;74989;52.210;5.148;2024-01-06T08:34:15;101116.53;;;5.60;81.40
81680;BME280;74989;52.210;5.148;2024-01-06T08:36:42;101136.72;;;5.79;81.07
81680;BME280;74989;52.210;5.148;2024-01-06T08:39:09;101109.50;;;5.60;80.85
81680;BME280;74989;52.210;5.148;2024-01-06T08:41:38;101146.41;;;5.78;80.25
81680;BME280;74989;52.210;5.148;2024-01-06T08:44:05;101142.16;;;5.77;80.30
81680;BME280;74989;52.210;5.148;2024-01-06T08:46:31;101137.31;;;5.74;79.89
81680;BME280;74989;52.210;5.148;2024-01-06T08:48:58;101128.84;;;5.66;80.82
81680;BME280;74989;52.210;5.148;2024-01-06T08:51:25;101127.03;;;5.73;80.08
81680;BME280;74989;52.210;5.148;2024-01-06T08:53:52;101157.28;;;5.82;79.48
81680;BME280;74989;52.210;5.148;2024-01-06T08:56:20;101144.59;;;5.79;80.63
81680;BME280;74989;52.210;5.148;2024-01-06T08:58:51;101142.75;;;5.73;80.87
81680;BME280;74989;52.210;5.148;2024-01-06T09:01:18;101159.94;;;5.95;79.81
81680;BME280;74989;52.210;5.148;2024-01-06T09:03:46;101172.44;;;5.93;78.50
81680;BME280;74989;52.210;5.148;2024-01-06T09:06:13;101163.34;;;5.89;79.18
81680;BME280;74989;52.210;5.148;2024-01-06T09:08:40;101178.09;;;5.90;79.35
81680;BME280;74989;52.210;5.148;2024-01-06T09:11:07;101183.53;;;5.95;79.08
81680;BME280;74989;52.210;5.148;2024-01-06T09:13:33;101184.94;;;6.04;79.00
81680;BME280;74989;52.210;5.148;2024-01-06T09:16:01;101183.94;;;5.98;78.64
81680;BME280;74989;52.210;5.148;2024-01-06T09:18:28;101190.59;;;5.94;79.03
81680;BME280;74989;52.210;5.148;2024-01-06T09:20:55;101198.06;;;5.97;78.96
81680;BME280;74989;52.210;5.148;2024-01-06T09:23:22;101198.06;;;5.97;77.96
81680;BME280;74989;52.210;5.148;2024-01-06T09:25:48;101200.50;;;5.92;77.65
81680;BME280;74989;52.210;5.148;2024-01-06T09:28:17;101215.22;;;5.87;77.35
81680;BME280;74989;52.210;5.148;2024-01-06T09:30:44;101219.47;;;5.88;77.60
81680;BME280;74989;52.210;5.148;2024-01-06T09:33:12;101218.63;;;5.81;78.00
81680;BME280;74989;52.210;5.148;2024-01-06T09:35:41;101232.31;;;5.76;77.49
81680;BME280;74989;52.210;5.148;2024-01-06T09:38:08;101228.50;;;5.79;78.90
81680;BME280;74989;52.210;5.148;2024-01-06T09:40:35;101232.13;;;5.78;77.83
81680;BME280;74989;52.210;5.148;2024-01-06T09:43:07;101231.91;;;5.79;79.10
81680;BME280;74989;52.210;5.148;2024-01-06T09:45:34;101229.34;;;5.86;78.97
81680;BME280;74989;52.210;5.148;2024-01-06T09:48:10;101210.53;;;5.69;77.59
81680;BME280;74989;52.210;5.148;2024-01-06T09:50:40;101208.09;;;5.68;77.50
81680;BME280;74989;52.210;5.148;2024-01-06T09:53:10;101250.94;;;5.88;78.22
81680;BME280;74989;52.210;5.148;2024-01-06T09:55:38;101251.94;;;5.93;78.48
81680;BME280;74989;52.210;5.148;2024-01-06T09:58:06;101249.13;;;5.88;78.44
81680;BME280;74989;52.210;5.148;2024-01-06T10:00:32;101236.75;;;5.69;77.91
81680;BME280;74989;52.210;5.148;2024-01-06T10:02:59;101262.41;;;5.87;76.66
81680;BME280;74989;52.210;5.148;2024-01-06T10:05:25;101251.31;;;5.85;77.57
81680;BME280;74989;52.210;5.148;2024-01-06T10:07:54;101264.84;;;5.88;78.02
81680;BME280;74989;52.210;5.148;2024-01-06T10:10:22;101274.75;;;5.99;78.32
81680;BME280;74989;52.210;5.148;2024-01-06T10:12:53;101270.50;;;5.98;78.49
81680;BME280;74989;52.210;5.148;2024-01-06T10:15:20;101255.38;;;5.87;77.61
81680;BME280;74989;52.210;5.148;2024-01-06T10:17:48;101276.56;;;5.99;77.52
81680;BME280;74989;52.210;5.148;2024-01-06T10:20:17;101275.56;;;6.00;77.33
81680;BME280;74989;52.210;5.148;2024-01-06T10:22:45;101278.19;;;6.00;78.34
81680;BME280;74989;52.210;5.148;2024-01-06T10:25:13;101282.84;;;6.11;77.70
81680;BME280;74989;52.210;5.148;2024-01-06T10:27:41;101276.16;;;6.15;77.80
81680;BME280;74989;52.210;5.148;2024-01-06T10:30:09;101289.50;;;6.20;77.04
81680;BME280;74989;52.210;5.148;2024-01-06T10:32:39;101271.31;;;6.05;76.06
81680;BME280;74989;52.210;5.148;2024-01-06T10:35:06;101295.53;;;6.07;76.60
81680;BME280;74989;52.210;5.148;2024-01-06T10:37:35;101290.88;;;6.03;77.04
81680;BME280;74989;52.210;5.148;2024-01-06T10:40:09;101283.44;;;6.00;76.82
81680;BME280;74989;52.210;5.148;2024-01-06T10:42:39;101292.91;;;6.01;77.18
81680;BME280;74989;52.210;5.148;2024-01-06T10:45:09;101277.75;;;5.90;76.66
81680;BME280;74989;52.210;5.148;2024-01-06T10:47:36;101303.81;;;6.11;75.82
81680;BME280;74989;52.210;5.148;2024-01-06T10:50:04;101305.63;;;6.04;76.37
81680;BME280;74989;52.210;5.148;2024-01-06T10:52:31;101316.13;;;6.04;76.74
81680;BME280;74989;52.210;5.148;2024-01-06T10:54:58;101314.53;;;6.09;75.96
81680;BME280;74989;52.210;5.148;2024-01-06T10:57:25;101311.69;;;6.17;75.91
81680;BME280;74989;52.210;5.148;2024-01-06T10:59:56;101326.63;;;6.10;76.81
81680;BME280;74989;52.210;5.148;2024-01-06T11:02:24;101314.91;;;6.06;77.09
81680;BME280;74989;52.210;5.148;2024-01-06T11:04:52;101323.59;;;6.13;75.89
81680;BME280;74989;52.210;5.148;2024-01-06T11:07:20;101319.56;;;6.11;75.51
81680;BME280;74989;52.210;5.148;2024-01-06T11:09:50;101306.84;;;5.95;75.27
81680;BME280;74989;52.210;5.148;2024-01-06T11:12:18;101308.22;;;5.91;75.61
81680;BME280;74989;52.210;5.148;2024-01-06T11:14:49;101286.56;;;5.69;75.43
81680;BME280;74989;52.210;5.148;2024-01-06T11:17:56;101329.78;;;5.86;76.60
81680;BME280;74989;52.210;5.148;2024-01-06T11:20:24;101332.84;;;5.90;77.07
81680;BME280;74989;52.210;5.148;2024-01-06T11:22:52;101335.25;;;5.98;76.28
81680;BME280;74989;52.210;5.148;2024-01-06T11:25:20;101331.66;;;5.99;75.88
81680;BME280;74989;52.210;5.148;2024-01-06T11:27:48;101328.81;;;5.87;76.70
81680;BME280;74989;52.210;5.148;2024-01-06T11:30:22;101311.44;;;5.86;76.18
81680;BME280;74989;52.210;5.148;2024-01-06T11:32:51;101329.44;;;6.02;76.29
81680;BME280;74989;52.210;5.148;2024-01-06T11:35:21;101340.34;;;5.99;76.22
81680;BME280;74989;52.210;5.148;2024-01-06T11:37:54;101341.75;;;6.02;76.80
81680;BME280;74989;52.210;5.148;2024-01-06T11:40:30;101345.00;;;6.17;74.43
81680;BME280;74989;52.210;5.148;2024-01-06T11:43:00;101327.00;;;6.07;74.30
81680;BME280;74989;52.210;5.148;2024-01-06T11:45:27;101337.13;;;6.10;75.78
81680;BME280;74989;52.210;5.148;2024-01-06T11:47:56;101323.78;;;5.99;75.55
81680;BME280;74989;52.210;5.148;2024-01-06T11:50:25;101340.75;;;6.09;75.51
81680;BME280;74989;52.210;5.148;2024-01-06T11:52:52;101333.50;;;6.11;76.18
81680;BME280;74989;52.210;5.148;2024-01-06T11:55:19;101343.56;;;6.14;76.69
81680;BME280;74989;52.210;5.148;2024-01-06T11:57:46;101332.69;;;6.04;74.81
81680;BME280;74989;52.210;5.148;2024-01-06T12:00:15;101345.19;;;6.15;76.04
81680;BME280;74989;52.210;5.148;2024-01-06T12:02:42;101320.97;;;6.07;75.08
81680;BME280;74989;52.210;5.148;2024-01-06T12:05:12;101343.00;;;6.26;75.25
81680;BME280;74989;52.210;5.148;2024-01-06T12:07:42;101340.78;;;6.29;75.28
81680;BME280;74989;52.210;5.148;2024-01-06T12:10:09;101332.91;;;6.29;75.49
81680;BME280;74989;52.210;5.148;2024-01-06T12:12:37;101326.06;;;6.28;76.01
81680;BME280;74989;52.210;5.148;2024-01-06T12:15:05;101334.91;;;6.40;75.87
81680;BME280;74989;52.210;5.148;2024-01-06T12:17:35;101334.91;;;6.40;75.88
81680;BME280;74989;52.210;5.148;2024-01-06T12:20:03;101322.41;;;6.36;76.51
81680;BME280;74989;52.210;5.148;2024-01-06T12:22:30;101330.31;;;6.42;76.65
81680;BME280;74989;52.210;5.148;2024-01-06T12:24:59;101306.88;;;6.28;76.58
81680;BME280;74989;52.210;5.148;2024-01-06T12:27:26;101336.16;;;6.51;76.49
81680;BME280;74989;52.210;5.148;2024-01-06T12:29:53;101347.84;;;6.55;75.66
81680;BME280;74989;52.210;5.148;2024-01-06T12:32:20;101336.34;;;6.43;74.94
81680;BME280;74989;52.210;5.148;2024-01-06T12:34:47;101350.88;;;6.52;75.07
81680;BME280;74989;52.210;5.148;2024-01-06T12:37:14;101352.09;;;6.36;76.00
81680;BME280;74989;52.210;5.148;2024-01-06T12:39:41;101341.59;;;6.30;74.64
81680;BME280;74989;52.210;5.148;2024-01-06T12:42:09;101356.53;;;6.22;74.83
81680;BME280;74989;52.210;5.148;2024-01-06T12:44:36;101357.50;;;6.15;75.74
81680;BME280;74989;52.210;5.148;2024-01-06T12:47:05;101370.44;;;6.16;75.53
81680;BME280;74989;52.210;5.148;2024-01-06T12:49:32;101340.94;;;5.95;75.81
81680;BME280;74989;52.210;5.148;2024-01-06T12:51:59;101351.00;;;5.98;76.24
81680;BME280;74989;52.210;5.148;2024-01-06T12:54:26;101370.25;;;6.18;76.35
81680;BME280;74989;52.210;5.148;2024-01-06T12:56:53;101380.13;;;6.16;75.52
81680;BME280;74989;52.210;5.148;2024-01-06T12:59:31;101346.41;;;6.00;75.07
81680;BME280;74989;52.210;5.148;2024-01-06T13:01:58;101360.72;;;6.04;75.65